Thunder radar more information blitzortung!


Radar de pluja more information rain snow radar


Visita la nostra xarxa de llocs de meteo:

Template documentation
and downloads

And another site



Extreme low temperature From: 23-02-2018 00:00 Until: 09:59 warning for: Extreme low temperature Level: Yellow info button

Pagina Historial Weather Underground text

Diari Resum Agost 25, 2017 Unitats:  Imperial    Mètric   Tant
« Previous Dia
SegĂźent Dia »
Diari Setmana Mensual Anual Personalitzada
  Maxima: Minima: Media:
Temperatura: TemperatureC °F 18.8 °F 26.7 °F
Punt de rosada: DewpointC °F 14.3 °F 16.4 °F
Humitat: Humidity % 34 % 55 %
Wind Speed: WindSpeedKMH mph 0.0 mph 7.1 mph
RĂ fegues de vent: WindSpeedGustKMH mph - -
Vent:- - SE
Pression baro: PressurehPa in 1013.8 in -
Precipitacions: 0.0 in    
Historical Graphs
 
 
Dades de taula per Agost 25, 2017
Temps Temperatura Punt de rosada Pression baro Vent Wind Speed RĂ fegues de vent Humitat Rainfall Rate (Hourly)
TemperatureC °F DewpointC °F PressurehPa in Calm     Humidity % HourlyPrecipMM in
00:00 20.5 °F 16.1 °F 1015.8 in Calm     76 % 0.0 in
00:03 23.0 °F 15.3 °F 1015.8 in Calm     62 % 0.0 in
00:08 23.0 °F 15.8 °F 1015.8 in Calm     64 % 0.0 in
00:10 20.3 °F 15.9 °F 1015.8 in Calm   1.6 mph 76 % 0.0 in
00:20 20.1 °F 15.9 °F 1015.8 in Calm   1.6 mph 77 % 0.0 in
00:30 20.0 °F 15.8 °F 1015.8 in Calm     77 % 0.0 in
00:40 19.7 °F 15.6 °F 1015.8 in Calm   1.6 mph 77 % 0.0 in
00:50 19.6 °F 15.4 °F 1015.8 in Calm     77 % 0.0 in
01:00 19.6 °F 15.4 °F 1015.8 in Calm     77 % 0.0 in
01:10 19.6 °F 15.4 °F 1015.8 in Calm     77 % 0.0 in
01:20 19.6 °F 15.4 °F 1014.8 in Calm     77 % 0.0 in
01:30 19.6 °F 15.4 °F 1015.8 in Calm   1.6 mph 77 % 0.0 in
01:40 19.5 °F 15.3 °F 1015.8 in Calm     77 % 0.0 in
01:50 19.5 °F 15.3 °F 1015.8 in Calm     77 % 0.0 in
02:00 19.4 °F 15.3 °F 1014.8 in Calm     77 % 0.0 in
02:10 19.3 °F 15.2 °F 1014.8 in Calm     77 % 0.0 in
02:20 19.2 °F 15.3 °F 1014.8 in Calm     78 % 0.0 in
02:30 19.2 °F 15.3 °F 1014.8 in Calm   1.6 mph 78 % 0.0 in
02:40 19.1 °F 15.2 °F 1014.8 in Calm   1.6 mph 78 % 0.0 in
02:50 19.0 °F 15.1 °F 1015.8 in Calm     78 % 0.0 in
03:00 19.0 °F 15.3 °F 1014.8 in Calm   1.6 mph 79 % 0.0 in
03:10 19.0 °F 15.3 °F 1014.8 in Calm   1.6 mph 79 % 0.0 in
03:20 18.9 °F 15.2 °F 1015.8 in Calm     79 % 0.0 in
03:30 18.8 °F 15.3 °F 1015.8 in Calm     80 % 0.0 in
03:40 18.8 °F 15.3 °F 1015.8 in Calm     80 % 0.0 in
03:50 19.0 °F 15.3 °F 1015.8 in Calm   1.6 mph 79 % 0.0 in
04:00 19.3 °F 15.6 °F 1015.8 in Calm     79 % 0.0 in
04:10 19.3 °F 15.4 °F 1015.8 in Calm     78 % 0.0 in
04:20 19.3 °F 15.2 °F 1015.8 in WNW 1.6 mph 1.6 mph 77 % 0.0 in
04:30 19.6 °F 15.7 °F 1015.8 in WSW 1.6 mph 3.2 mph 78 % 0.0 in
04:40 19.6 °F 15.4 °F 1015.8 in SW 1.6 mph 3.2 mph 77 % 0.0 in
05:00 21.0 °F 16.6 °F 1015.8 in Calm   3.2 mph 76 % 0.0 in
05:10 22.0 °F 16.5 °F 1015.8 in SSE 1.6 mph 4.8 mph 71 % 0.0 in
05:20 22.0 °F 16.1 °F 1015.8 in ESE 3.2 mph 3.2 mph 69 % 0.0 in
05:30 22.7 °F 16.3 °F 1015.8 in SE 1.6 mph 3.2 mph 67 % 0.0 in
05:40 23.7 °F 16.5 °F 1015.8 in Calm   1.6 mph 64 % 0.0 in
10:44 26.4 °F 15.1 °F 1016.8 in ENE 7.4 mph 7.4 mph 50 % 0.0 in
10:49 26.5 °F 14.9 °F 1016.8 in ENE 7.4 mph 7.4 mph 49 % 0.0 in
10:54 26.4 °F 15.1 °F 1016.8 in ENE 3.7 mph 3.7 mph 50 % 0.0 in
10:59 26.5 °F 15.2 °F 1016.8 in NNW 7.4 mph 7.4 mph 50 % 0.0 in
11:04 27.0 °F 15.1 °F 1016.8 in SE 5.6 mph 5.6 mph 48 % 0.0 in
11:09 27.1 °F 14.8 °F 1016.8 in ESE 7.4 mph 7.4 mph 47 % 0.0 in
11:14 27.0 °F 15.1 °F 1016.8 in NE 7.4 mph 7.4 mph 48 % 0.0 in
11:19 27.3 °F 15.3 °F 1016.8 in NNE 7.4 mph 7.4 mph 48 % 0.0 in
11:24 27.6 °F 15.6 °F 1016.8 in NNE 7.4 mph 7.4 mph 48 % 0.0 in
11:29 28.2 °F 16.2 °F 1016.8 in ENE 5.6 mph 5.6 mph 48 % 0.0 in
11:34 28.1 °F 15.7 °F 1016.8 in ESE 9.3 mph 9.3 mph 47 % 0.0 in
11:39 27.8 °F 15.4 °F 1016.8 in ENE 7.4 mph 7.4 mph 47 % 0.0 in
11:44 28.1 °F 16.1 °F 1016.8 in ESE 6.1 mph 6.1 mph 48 % 0.0 in
11:49 28.8 °F 16.7 °F 1016.8 in North 2.3 mph   48 % 0.0 in
11:54 28.9 °F 16.8 °F 1016.8 in WNW 3.9 mph 3.9 mph 48 % 0.0 in
11:55 28.9 °F 16.8 °F 1016.8 in WNW 3.9 mph 3.9 mph 48 % 0.0 in
12:00 29.2 °F 16.7 °F 1016.8 in WSW 6.1 mph 6.1 mph 47 % 0.0 in
12:05 29.5 °F 16.7 °F 1016.8 in ESE 3.7 mph 3.7 mph 46 % 0.0 in
12:10 30.0 °F 16.8 °F 1016.8 in North 3.7 mph 3.7 mph 45 % 0.0 in
12:15 29.9 °F 17.0 °F 1016.8 in East 5.6 mph 5.6 mph 46 % 0.0 in
12:20 29.8 °F 16.6 °F 1016.8 in North 9.3 mph 9.3 mph 45 % 0.0 in
12:25 29.9 °F 17.0 °F 1016.8 in SSW 3.5 mph 3.5 mph 46 % 0.0 in
12:30 30.3 °F 16.7 °F 1015.8 in ESE 11.1 mph 11.1 mph 44 % 0.0 in
12:35 30.5 °F 16.9 °F 1015.8 in SSE 4.7 mph   44 % 0.0 in
12:40 30.6 °F 16.9 °F 1015.8 in ENE 7.4 mph 7.4 mph 44 % 0.0 in
12:42 30.2 °F 16.6 °F 1015.8 in East 7.4 mph 7.4 mph 44 % 0.0 in
12:47 30.3 °F 16.3 °F 1015.8 in East 11.1 mph 11.1 mph 43 % 0.0 in
12:52 30.6 °F 16.6 °F 1015.8 in South 7.4 mph 7.4 mph 43 % 0.0 in
12:57 30.8 °F 16.8 °F 1015.8 in NE 3.7 mph 3.7 mph 43 % 0.0 in
13:02 30.9 °F 16.9 °F 1015.8 in NE 5.6 mph 5.6 mph 43 % 0.0 in
13:03 30.7 °F 16.3 °F 1015.8 in ENE 7.6 mph 7.6 mph 42 % 0.0 in
13:08 30.7 °F 15.9 °F 1015.8 in SW 9.3 mph 9.3 mph 41 % 0.0 in
13:13 30.6 °F 16.6 °F 1014.8 in South 9.3 mph 9.3 mph 43 % 0.0 in
13:18 31.1 °F 16.7 °F 1014.8 in East 13.0 mph 13.0 mph 42 % 0.0 in
13:23 31.1 °F 17.1 °F 1014.8 in ENE 14.8 mph 14.8 mph 43 % 0.0 in
13:28 31.1 °F 17.1 °F 1015.8 in ESE 13.0 mph 13.0 mph 43 % 0.0 in
13:33 31.2 °F 17.1 °F 1015.8 in East 14.8 mph 14.8 mph 43 % 0.0 in
13:38 31.3 °F 17.2 °F 1015.8 in ESE 17.5 mph 17.5 mph 43 % 0.0 in
13:43 31.1 °F 17.1 °F 1015.8 in East 16.7 mph 16.7 mph 43 % 0.0 in
13:48 31.4 °F 16.9 °F 1015.8 in SSE 11.1 mph 11.1 mph 42 % 0.0 in
13:53 31.3 °F 17.2 °F 1015.8 in SSE 11.1 mph 11.1 mph 43 % 0.0 in
13:58 31.5 °F 17.1 °F 1015.8 in East 16.7 mph 16.7 mph 42 % 0.0 in
14:03 31.5 °F 17.1 °F 1015.8 in ESE 14.8 mph 14.8 mph 42 % 0.0 in
14:08 31.4 °F 16.9 °F 1015.8 in NNE 13.0 mph 13.0 mph 42 % 0.0 in
14:13 31.3 °F 16.8 °F 1015.8 in SSE 13.0 mph 13.0 mph 42 % 0.0 in
14:15 31.3 °F 16.8 °F 1015.8 in ESE 16.7 mph 16.7 mph 42 % 0.0 in
14:20 31.2 °F 16.8 °F 1015.8 in NNE 18.5 mph 18.5 mph 42 % 0.0 in
14:25 31.1 °F 17.1 °F 1015.8 in ESE 14.0 mph 14.0 mph 43 % 0.0 in
14:30 31.1 °F 17.1 °F 1015.8 in East 9.5 mph 10.0 mph 43 % 0.0 in
14:35 31.1 °F 17.1 °F 1015.8 in ENE 13.0 mph 13.0 mph 43 % 0.0 in
14:36 31.1 °F 17.1 °F 1015.8 in NNE 13.0 mph 13.0 mph 43 % 0.0 in
14:41 30.7 °F 17.1 °F 1015.8 in East 16.7 mph 16.7 mph 44 % 0.0 in
14:46 30.6 °F 16.9 °F 1015.8 in ENE 13.0 mph 13.0 mph 44 % 0.0 in
14:51 30.7 °F 17.1 °F 1015.8 in ESE 16.7 mph 16.7 mph 44 % 0.0 in
14:56 30.4 °F 16.8 °F 1015.8 in East 13.0 mph 13.0 mph 44 % 0.0 in
15:01 30.6 °F 16.9 °F 1015.8 in ESE 18.5 mph 18.5 mph 44 % 0.0 in
15:06 30.5 °F 16.9 °F 1015.8 in ESE 18.5 mph 18.5 mph 44 % 0.0 in
15:11 30.7 °F 17.4 °F 1014.8 in East 15.1 mph 15.1 mph 45 % 0.0 in
15:16 30.8 °F 17.5 °F 1014.8 in ENE 14.8 mph 14.8 mph 45 % 0.0 in
15:21 30.4 °F 17.1 °F 1014.8 in East 24.1 mph 24.1 mph 45 % 0.0 in
15:26 30.6 °F 17.3 °F 1014.8 in ESE 24.1 mph 24.1 mph 45 % 0.0 in
15:31 30.8 °F 17.5 °F 1014.8 in SSE 14.8 mph 14.8 mph 45 % 0.0 in
15:36 30.9 °F 17.6 °F 1014.8 in ENE 13.0 mph 13.0 mph 45 % 0.0 in
15:41 31.0 °F 17.3 °F 1014.8 in South 11.1 mph 11.1 mph 44 % 0.0 in
15:46 31.0 °F 17.3 °F 1014.8 in SSE 14.8 mph 14.8 mph 44 % 0.0 in
15:51 31.6 °F 17.8 °F 1014.8 in SE 11.1 mph 11.1 mph 44 % 0.0 in
15:56 31.6 °F 17.8 °F 1014.8 in ESE 7.4 mph 7.4 mph 44 % 0.0 in
16:01 31.5 °F 17.4 °F 1014.8 in East 11.9 mph 11.9 mph 43 % 0.0 in
16:06 31.5 °F 17.8 °F 1014.8 in East 7.4 mph 7.4 mph 44 % 0.0 in
16:11 32.0 °F 17.8 °F 1015.8 in SSE 16.7 mph 16.7 mph 43 % 0.0 in
16:16 32.5 °F 17.6 °F 1015.8 in SW 13.0 mph 13.0 mph 41 % 0.0 in
16:21 32.5 °F 17.2 °F 1015.8 in SSE 5.6 mph 5.6 mph 40 % 0.0 in
16:26 32.5 °F 17.6 °F 1015.8 in South 9.3 mph 9.3 mph 41 % 0.0 in
16:31 32.6 °F 17.2 °F 1015.8 in NNW 7.4 mph 7.4 mph 40 % 0.0 in
16:36 33.4 °F 17.6 °F 1015.8 in SE 5.6 mph 5.6 mph 39 % 0.0 in
16:41 33.6 °F 17.3 °F 1014.8 in SSW 11.1 mph 11.1 mph 38 % 0.0 in
16:46 33.6 °F 17.3 °F 1014.8 in West 10.3 mph 10.3 mph 38 % 0.0 in
16:51 33.5 °F 16.8 °F 1014.8 in South 4.7 mph 4.7 mph 37 % 0.0 in
16:56 33.4 °F 16.7 °F 1014.8 in South 5.8 mph 5.8 mph 37 % 0.0 in
17:01 33.6 °F 16.9 °F 1014.8 in NE 9.3 mph 9.3 mph 37 % 0.0 in
17:06 33.3 °F 16.2 °F 1014.8 in West 9.7 mph 9.7 mph 36 % 0.0 in
17:11 33.2 °F 16.1 °F 1014.8 in SW 11.1 mph 11.1 mph 36 % 0.0 in
17:16 32.8 °F 15.3 °F 1014.8 in SW 9.3 mph 9.3 mph 35 % 0.0 in
17:21 32.8 °F 15.3 °F 1014.8 in SSW 9.3 mph 9.3 mph 35 % 0.0 in
17:26 32.4 °F 14.5 °F 1014.8 in SSW 11.1 mph 11.1 mph 34 % 0.0 in
17:31 32.3 °F 14.4 °F 1014.8 in SSW 9.3 mph 9.3 mph 34 % 0.0 in
17:36 32.2 °F 14.8 °F 1014.8 in SW 7.4 mph 7.4 mph 35 % 0.0 in
17:41 32.1 °F 14.7 °F 1014.8 in SW 14.8 mph 14.8 mph 35 % 0.0 in
17:46 32.2 °F 14.8 °F 1014.8 in WSW 9.3 mph 9.3 mph 35 % 0.0 in
17:51 32.2 °F 14.8 °F 1014.8 in SSW 7.4 mph 7.4 mph 35 % 0.0 in
17:52 32.1 °F 14.7 °F 1014.8 in West 5.6 mph 5.6 mph 35 % 0.0 in
17:57 31.8 °F 14.4 °F 1014.8 in SW 9.3 mph 9.3 mph 35 % 0.0 in
18:02 31.9 °F 15.0 °F 1014.8 in SW 5.3 mph 5.3 mph 36 % 0.0 in
18:07 31.7 °F 14.3 °F 1014.8 in WSW 9.3 mph 9.3 mph 35 % 0.0 in
18:12 32.0 °F 14.6 °F 1014.8 in SW 5.6 mph 5.6 mph 35 % 0.0 in
18:17 31.2 °F 14.3 °F 1014.8 in SE 9.3 mph 9.3 mph 36 % 0.0 in
18:18 31.2 °F 14.3 °F 1014.8 in SW 9.3 mph 9.3 mph 36 % 0.0 in
18:23 30.6 °F 15.4 °F 1014.8 in ENE 10.3 mph 10.3 mph 40 % 0.0 in
18:28 30.1 °F 15.4 °F 1014.8 in ENE 12.2 mph 12.2 mph 41 % 0.0 in
18:33 29.7 °F 15.4 °F 1014.8 in ESE 13.0 mph 13.0 mph 42 % 0.0 in
18:38 29.7 °F 15.8 °F 1014.8 in SE 14.8 mph 14.8 mph 43 % 0.0 in
18:43 29.6 °F 16.1 °F 1013.8 in NNE 14.8 mph 14.8 mph 44 % 0.0 in
18:48 29.2 °F 15.7 °F 1013.8 in ENE 14.8 mph 14.8 mph 44 % 0.0 in
18:53 28.9 °F 16.1 °F 1013.8 in ENE 16.7 mph 16.7 mph 46 % 0.0 in
18:58 28.7 °F 16.3 °F 1013.8 in East 18.5 mph 18.5 mph 47 % 0.0 in
19:03 28.6 °F 16.2 °F 1013.8 in ENE 11.9 mph 11.9 mph 47 % 0.0 in
19:08 28.4 °F 16.3 °F 1013.8 in South 16.7 mph 16.7 mph 48 % 0.0 in
19:13 28.3 °F 15.9 °F 1013.8 in ESE 22.2 mph 22.2 mph 47 % 0.0 in
19:18 28.2 °F 16.2 °F 1013.8 in ESE 13.0 mph 13.0 mph 48 % 0.0 in
19:23 28.1 °F 16.1 °F 1013.8 in SE 9.3 mph 9.3 mph 48 % 0.0 in
19:28 28.2 °F 16.4 °F 1013.8 in ESE 5.6 mph 5.6 mph 49 % 0.0 in
19:33 27.9 °F 16.2 °F 1013.8 in SSE 5.6 mph 5.6 mph 49 % 0.0 in
19:38 27.7 °F 16.3 °F 1013.8 in SE 11.1 mph 11.1 mph 50 % 0.0 in
19:43 27.5 °F 16.2 °F 1014.8 in SSE 9.3 mph 9.3 mph 50 % 0.0 in
19:48 27.3 °F 16.3 °F 1014.8 in SE 9.3 mph 9.3 mph 51 % 0.0 in
19:53 27.2 °F 16.2 °F 1014.8 in East 5.6 mph 5.8 mph 51 % 0.0 in
19:58 27.0 °F 16.3 °F 1014.8 in SE 7.4 mph 7.4 mph 52 % 0.0 in
20:03 26.9 °F 16.5 °F 1014.8 in ESE 9.3 mph 9.3 mph 53 % 0.0 in
20:08 26.7 °F 16.3 °F 1014.8 in ENE 9.3 mph 9.3 mph 53 % 0.0 in
20:13 26.5 °F 16.4 °F 1014.8 in East 5.6 mph 5.6 mph 54 % 0.0 in
20:18 26.3 °F 16.6 °F 1014.8 in East 7.4 mph 7.4 mph 55 % 0.0 in
20:23 26.2 °F 16.4 °F 1014.8 in ENE 11.1 mph 11.1 mph 55 % 0.0 in
20:28 26.2 °F 16.4 °F 1014.8 in ESE 9.5 mph 9.5 mph 55 % 0.0 in
20:30 23.2 °F 18.1 °F 1015.8 in NNE 1.6 mph 3.2 mph 73 % 0.0 in
20:33 26.0 °F 16.3 °F 1014.8 in East 7.4 mph 7.4 mph 55 % 0.0 in
20:38 25.9 °F 16.4 °F 1014.8 in East 9.3 mph 9.3 mph 56 % 0.0 in
20:40 23.1 °F 18.0 °F 1015.8 in Calm   3.2 mph 73 % 0.0 in
20:43 25.7 °F 16.3 °F 1014.8 in SE 7.4 mph 7.4 mph 56 % 0.0 in
20:48 25.6 °F 16.4 °F 1014.8 in East 6.9 mph 6.9 mph 57 % 0.0 in
20:50 22.8 °F 17.9 °F 1015.8 in East 1.6 mph 4.8 mph 74 % 0.0 in
20:53 25.5 °F 16.6 °F 1014.8 in NE 11.1 mph 11.1 mph 58 % 0.0 in
20:58 25.3 °F 16.4 °F 1015.8 in ENE 9.3 mph 9.3 mph 58 % 0.0 in
21:00 22.7 °F 17.6 °F 1014.8 in East 3.2 mph 4.8 mph 73 % 0.0 in
21:03 25.2 °F 16.6 °F 1015.8 in East 5.0 mph 5.0 mph 59 % 0.0 in
21:08 25.1 °F 16.5 °F 1015.8 in NE 3.7 mph 3.7 mph 59 % 0.0 in
21:10 22.7 °F 17.8 °F 1014.8 in NE 1.6 mph 3.2 mph 74 % 0.0 in
21:13 25.0 °F 16.7 °F 1014.8 in East 5.6 mph 5.6 mph 60 % 0.0 in
21:18 25.0 °F 16.9 °F 1014.8 in NE 11.1 mph 11.1 mph 61 % 0.0 in
21:20 22.7 °F 17.8 °F 1015.8 in NNE 3.2 mph 3.2 mph 74 % 0.0 in
21:23 24.8 °F 17.0 °F 1014.8 in ESE 5.6 mph 5.6 mph 62 % 0.0 in
21:28 24.8 °F 17.3 °F 1015.8 in East 9.3 mph 9.3 mph 63 % 0.0 in
21:30 22.7 °F 17.8 °F 1015.8 in NE 1.6 mph 4.8 mph 74 % 0.0 in
21:33 24.7 °F 17.4 °F 1015.8 in ESE 5.6 mph 5.6 mph 64 % 0.0 in
21:38 24.7 °F 17.4 °F 1015.8 in ESE 5.6 mph 5.6 mph 64 % 0.0 in
21:40 22.7 °F 17.8 °F 1015.8 in NE 3.2 mph 4.8 mph 74 % 0.0 in
21:43 24.7 °F 17.4 °F 1015.8 in NE 2.6 mph 2.6 mph 64 % 0.0 in
21:48 24.6 °F 17.3 °F 1015.8 in ENE 3.7 mph 3.7 mph 64 % 0.0 in
21:50 22.6 °F 17.9 °F 1015.8 in NNE 1.6 mph 3.2 mph 75 % 0.0 in
21:53 24.6 °F 17.6 °F 1015.8 in NNE 3.7 mph 3.7 mph 65 % 0.0 in
21:58 24.6 °F 17.3 °F 1015.8 in NE 3.9 mph 3.9 mph 64 % 0.0 in
22:00 22.5 °F 17.8 °F 1015.8 in Calm   1.6 mph 75 % 0.0 in
22:03 24.5 °F 17.5 °F 1015.8 in NE 3.7 mph 3.7 mph 65 % 0.0 in
22:08 24.5 °F 17.5 °F 1015.8 in NE 5.6 mph 5.6 mph 65 % 0.0 in
22:09 24.5 °F 17.5 °F 1015.8 in ENE 4.2 mph 4.2 mph 65 % 0.0 in
22:10 22.3 °F 17.7 °F 1015.8 in NE 3.2 mph 6.4 mph 75 % 0.0 in
22:14 24.5 °F 17.5 °F 1015.8 in NE 5.3 mph 5.3 mph 65 % 0.0 in
22:19 24.4 °F 17.6 °F 1015.8 in East 3.7 mph 3.7 mph 66 % 0.0 in
22:20 22.2 °F 17.8 °F 1014.8 in Calm   3.2 mph 76 % 0.0 in
22:24 24.4 °F 17.6 °F 1015.8 in ENE 3.7 mph 3.7 mph 66 % 0.0 in
22:29 24.4 °F 17.9 °F 1016.8 in ENE 4.2 mph 4.2 mph 67 % 0.0 in
22:30 22.4 °F 17.9 °F 1014.8 in North 3.2 mph 4.8 mph 76 % 0.0 in
22:34 24.3 °F 18.0 °F 1016.8 in ENE 5.6 mph 5.6 mph 68 % 0.0 in
22:39 24.3 °F 17.8 °F 1016.8 in ENE 3.7 mph 3.7 mph 67 % 0.0 in
22:40 22.4 °F 18.2 °F 1014.8 in NNW 1.6 mph 3.2 mph 77 % 0.0 in
22:44 24.3 °F 18.0 °F 1015.8 in East 3.7 mph 3.7 mph 68 % 0.0 in
22:49 24.2 °F 18.2 °F 1015.8 in ESE 3.9 mph 3.9 mph 69 % 0.0 in
22:50 22.4 °F 18.2 °F 1014.8 in NNW 1.6 mph 3.2 mph 77 % 0.0 in
22:54 24.2 °F 17.9 °F 1015.8 in ESE 3.7 mph 3.7 mph 68 % 0.0 in
23:00 24.0 °F 17.9 °F 1015.8 in ESE 5.6 mph 5.6 mph 69 % 0.0 in
23:05 23.9 °F 17.9 °F 1015.8 in SE 3.9 mph 3.9 mph 69 % 0.0 in
23:10 23.8 °F 17.8 °F 1015.8 in ESE 6.1 mph 6.1 mph 69 % 0.0 in
23:15 23.7 °F 17.4 °F 1015.8 in SSE 3.7 mph 3.7 mph 68 % 0.0 in
23:20 23.6 °F 17.3 °F 1015.8 in South 3.7 mph 3.7 mph 68 % 0.0 in
23:25 23.6 °F 17.1 °F 1015.8 in SW 2.3 mph 2.3 mph 67 % 0.0 in
23:30 23.5 °F 17.3 °F 1015.8 in SW 3.7 mph 3.7 mph 68 % 0.0 in
23:35 23.3 °F 17.1 °F 1015.8 in West 2.3 mph 2.3 mph 68 % 0.0 in
23:40 23.2 °F 16.9 °F 1015.8 in SW 5.3 mph 5.3 mph 68 % 0.0 in
23:45 23.1 °F 16.9 °F 1016.8 in WSW 3.7 mph 3.7 mph 68 % 0.0 in
23:50 23.2 °F 16.9 °F 1016.8 in WSW 3.7 mph 3.7 mph 68 % 0.0 in
23:55 23.2 °F 17.2 °F 1016.8 in West 4.7 mph 4.7 mph 69 % 0.0 in
Meteo Sesrovires
Elogis d' Weather Underground - 3.75 mb

Guio original per  Jim McMurry - jmcmurry@mwt.net Adaptat per a la plantilla per  Wim van der Kuil - Leuven-Template.eu

Trobareu la nostra informacio del temps tambe a:

Weather Underground

AWEKAS